Rowe, New Mexico
Current Conditions -  °F | °C
As of 2:53 PM on Monday 24 Nov 2014 (Local Time) from KSAF Reporting Station
Broken Clouds Broken Clouds  
Wind Chill: 30°   Ceiling: 9000
Heat Index: 37°   Visibility: 10mi
Dew Point:   Wind: 9mph
Humidity: 25%   Direction: 320°NW
Pressure: 30.04"   Gusts: NA
Location:  35.49°N, 105.68°W
Report Text: KSAF 242153Z 32008KT 10SM SCT070 BKN090 03/M16 A3004 RMK AO2 SLP181 T00281156
Loading
Personal Weather Stations






























Interactive Weather Map New forecast layout! Learn more

10-Day Weather Forecast

Advertisements
Track Severe Weather on mobile